createdAt,value
2018-06-02T00:00:03.685Z,1014.64
2018-06-02T00:01:03.647Z,1014.63
2018-06-02T00:02:03.605Z,1014.68
2018-06-02T00:03:03.562Z,1014.66
2018-06-02T00:04:03.523Z,1014.64
2018-06-02T00:05:03.482Z,1014.63
2018-06-02T00:06:03.441Z,1014.61
2018-06-02T00:07:03.401Z,1014.66
2018-06-02T00:08:03.363Z,1014.66
2018-06-02T00:09:03.326Z,1014.65
2018-06-02T00:10:03.282Z,1014.68
2018-06-02T00:11:03.250Z,1014.67
2018-06-02T00:12:03.202Z,1014.66
2018-06-02T00:13:03.161Z,1014.64
2018-06-02T00:14:03.121Z,1014.62
2018-06-02T00:15:03.075Z,1014.69
2018-06-02T00:16:03.036Z,1014.68
2018-06-02T00:17:02.995Z,1014.67
2018-06-02T00:18:02.955Z,1014.68
2018-06-02T00:19:02.912Z,1014.65
2018-06-02T00:20:02.872Z,1014.68
2018-06-02T00:21:02.831Z,1014.68
2018-06-02T00:22:02.792Z,1014.61
2018-06-02T00:23:02.751Z,1014.68
2018-06-02T00:24:02.709Z,1014.65
2018-06-02T00:25:02.674Z,1014.65
2018-06-02T00:26:02.630Z,1014.65
2018-06-02T00:27:02.586Z,1014.68
2018-06-02T00:28:02.547Z,1014.68
2018-06-02T00:29:02.507Z,1014.69
2018-06-02T00:30:02.465Z,1014.70
2018-06-02T00:31:02.423Z,1014.67
2018-06-02T00:32:02.385Z,1014.70
2018-06-02T00:33:02.344Z,1014.69
2018-06-02T00:34:02.304Z,1014.74
2018-06-02T00:35:02.266Z,1014.74
2018-06-02T00:36:02.222Z,1014.72
2018-06-02T00:37:02.185Z,1014.75
2018-06-02T00:38:02.143Z,1014.76
2018-06-02T00:39:02.113Z,1014.77
2018-06-02T00:40:02.066Z,1014.74
2018-06-02T00:41:02.021Z,1014.71
2018-06-02T00:42:01.979Z,1014.76
2018-06-02T00:43:01.938Z,1014.75
2018-06-02T00:44:01.901Z,1014.77
2018-06-02T00:45:01.854Z,1014.79
2018-06-02T00:46:01.816Z,1014.77
2018-06-02T00:47:01.773Z,1014.78
2018-06-02T00:48:01.736Z,1014.78
2018-06-02T00:49:01.693Z,1014.75
2018-06-02T00:50:01.654Z,1014.73
2018-06-02T00:51:01.610Z,1014.73
2018-06-02T00:52:01.569Z,1014.73
2018-06-02T00:53:01.531Z,1014.72
2018-06-02T00:54:01.488Z,1014.77
2018-06-02T00:55:01.453Z,1014.77
2018-06-02T00:56:01.407Z,1014.70
2018-06-02T00:57:01.366Z,1014.70
2018-06-02T00:58:01.327Z,1014.74
2018-06-02T00:59:01.289Z,1014.67
2018-06-02T01:00:01.259Z,1014.70
2018-06-02T01:01:01.204Z,1014.67
2018-06-02T01:02:01.166Z,1014.67
2018-06-02T01:03:01.127Z,1014.70
2018-06-02T01:04:01.083Z,1014.64
2018-06-02T01:05:01.048Z,1014.65
2018-06-02T01:06:01.004Z,1014.58
2018-06-02T01:07:00.973Z,1014.62
2018-06-02T01:08:00.923Z,1014.57
2018-06-02T01:09:00.951Z,1014.58
2018-06-02T01:10:00.838Z,1014.59
2018-06-02T01:11:00.796Z,1014.57
2018-06-02T01:12:00.757Z,1014.59
2018-06-02T01:13:00.718Z,1014.61
2018-06-02T01:14:00.674Z,1014.59
2018-06-02T01:15:00.635Z,1014.55
2018-06-02T01:16:00.591Z,1014.58
2018-06-02T01:17:00.549Z,1014.52
2018-06-02T01:18:00.515Z,1014.52
2018-06-02T01:19:00.470Z,1014.52
2018-06-02T01:20:00.432Z,1014.50
2018-06-02T01:21:00.387Z,1014.51
2018-06-02T01:22:00.348Z,1014.51
2018-06-02T01:23:00.310Z,1014.49
2018-06-02T01:24:00.265Z,1014.50
2018-06-02T01:25:00.227Z,1014.51
2018-06-02T01:26:00.187Z,1014.51
2018-06-02T01:27:00.144Z,1014.49
2018-06-02T01:28:00.104Z,1014.46
2018-06-02T01:29:00.063Z,1014.49
2018-06-02T01:30:00.026Z,1014.44
2018-06-02T01:30:59.979Z,1014.44
2018-06-02T01:31:59.938Z,1014.50
2018-06-02T01:32:59.898Z,1014.48
2018-06-02T01:33:59.860Z,1014.46
2018-06-02T01:34:59.816Z,1014.46
2018-06-02T01:35:59.776Z,1014.51
2018-06-02T01:36:59.739Z,1014.47
2018-06-02T01:37:59.696Z,1014.48
2018-06-02T01:38:59.666Z,1014.47
2018-06-02T01:39:59.618Z,1014.47
2018-06-02T01:40:59.574Z,1014.49
2018-06-02T01:41:59.534Z,1014.43
2018-06-02T01:42:59.489Z,1014.42
2018-06-02T01:43:59.450Z,1014.44
2018-06-02T01:44:59.409Z,1014.45
2018-06-02T01:45:59.367Z,1014.48
2018-06-02T01:46:59.326Z,1014.43
2018-06-02T01:47:59.295Z,1014.42
2018-06-02T01:48:59.247Z,1014.41
2018-06-02T01:49:59.204Z,1014.41
2018-06-02T01:50:59.169Z,1014.41
2018-06-02T01:51:59.124Z,1014.41
2018-06-02T01:52:59.082Z,1014.41
2018-06-02T01:53:59.048Z,1014.40
2018-06-02T01:54:58.999Z,1014.40
2018-06-02T01:55:58.965Z,1014.39
2018-06-02T01:56:58.922Z,1014.42
2018-06-02T01:57:58.878Z,1014.43
2018-06-02T01:58:58.837Z,1014.44
2018-06-02T01:59:58.795Z,1014.43
2018-06-02T02:00:58.760Z,1014.44
2018-06-02T02:01:58.725Z,1014.47
2018-06-02T02:02:58.674Z,1014.42
2018-06-02T02:03:58.636Z,1014.47
2018-06-02T02:04:58.594Z,1014.43
2018-06-02T02:05:58.551Z,1014.47
2018-06-02T02:06:58.517Z,1014.42
2018-06-02T02:07:58.468Z,1014.42
2018-06-02T02:08:58.429Z,1014.39
2018-06-02T02:09:58.388Z,1014.43
2018-06-02T02:10:58.348Z,1014.41
2018-06-02T02:11:58.306Z,1014.39
2018-06-02T02:12:58.265Z,1014.41
2018-06-02T02:13:58.225Z,1014.35
2018-06-02T02:14:58.184Z,1014.36
2018-06-02T02:15:58.146Z,1014.39
2018-06-02T02:16:58.106Z,1014.39
2018-06-02T02:17:58.060Z,1014.37
2018-06-02T02:18:58.023Z,1014.39
2018-06-02T02:19:57.981Z,1014.37
2018-06-02T02:20:57.942Z,1014.38
2018-06-02T02:21:57.901Z,1014.37
2018-06-02T02:22:57.858Z,1014.36
2018-06-02T02:23:57.816Z,1014.34
2018-06-02T02:24:57.777Z,1014.32
2018-06-02T02:25:57.737Z,1014.31
2018-06-02T02:26:57.699Z,1014.32
2018-06-02T02:27:57.660Z,1014.35
2018-06-02T02:28:57.612Z,1014.33
2018-06-02T02:29:57.571Z,1014.33
2018-06-02T02:30:57.534Z,1014.32
2018-06-02T02:31:57.490Z,1014.30
2018-06-02T02:32:57.449Z,1014.28
2018-06-02T02:33:57.408Z,1014.29
2018-06-02T02:34:57.372Z,1014.30
2018-06-02T02:35:57.328Z,1014.35
2018-06-02T02:36:57.285Z,1014.34
2018-06-02T02:37:57.245Z,1014.33
2018-06-02T02:38:57.213Z,1014.34
2018-06-02T02:39:57.177Z,1014.36
2018-06-02T02:40:57.122Z,1014.36
2018-06-02T02:41:57.089Z,1014.32
2018-06-02T02:42:57.042Z,1014.32
2018-06-02T02:43:57.010Z,1014.34
2018-06-02T02:44:56.965Z,1014.32
2018-06-02T02:45:56.917Z,1014.36
2018-06-02T02:46:56.883Z,1014.34
2018-06-02T02:47:56.835Z,1014.31
2018-06-02T02:48:56.800Z,1014.37
2018-06-02T02:49:56.755Z,1014.38
2018-06-02T02:50:56.717Z,1014.37
2018-06-02T02:51:56.682Z,1014.33
2018-06-02T02:52:56.632Z,1014.33
2018-06-02T02:53:56.604Z,1014.33
2018-06-02T02:54:56.551Z,1014.38
2018-06-02T02:55:56.520Z,1014.34
2018-06-02T02:56:56.469Z,1014.38
2018-06-02T02:57:56.429Z,1014.35
2018-06-02T02:58:56.388Z,1014.37
2018-06-02T02:59:56.347Z,1014.40
2018-06-02T03:00:56.314Z,1014.42
2018-06-02T03:01:56.265Z,1014.45
2018-06-02T03:02:56.225Z,1014.42
2018-06-02T03:03:56.188Z,1014.44
2018-06-02T03:04:56.146Z,1014.45
2018-06-02T03:05:56.104Z,1014.42
2018-06-02T03:06:56.062Z,1014.46
2018-06-02T03:07:56.020Z,1014.45
2018-06-02T03:08:55.983Z,1014.47
2018-06-02T03:09:55.940Z,1014.48
2018-06-02T03:10:55.902Z,1014.48
2018-06-02T03:11:55.858Z,1014.47
2018-06-02T03:12:55.829Z,1014.50
2018-06-02T03:13:55.780Z,1014.51
2018-06-02T03:14:55.746Z,1014.50
2018-06-02T03:15:55.695Z,1014.49
2018-06-02T03:16:55.665Z,1014.52
2018-06-02T03:17:55.614Z,1014.50
2018-06-02T03:18:55.574Z,1014.50
2018-06-02T03:19:55.549Z,1014.52
2018-06-02T03:20:55.492Z,1014.55
2018-06-02T03:21:55.476Z,1014.49
2018-06-02T03:22:55.415Z,1014.49
2018-06-02T03:23:55.372Z,1014.51
2018-06-02T03:24:55.329Z,1014.48
2018-06-02T03:25:55.294Z,1014.45
2018-06-02T03:26:55.248Z,1014.47
2018-06-02T03:27:55.206Z,1014.44
2018-06-02T03:28:55.165Z,1014.44
2018-06-02T03:29:55.126Z,1014.41
2018-06-02T03:30:55.085Z,1014.41
2018-06-02T03:31:55.043Z,1014.39
2018-06-02T03:32:55.002Z,1014.40
2018-06-02T03:33:54.969Z,1014.41
2018-06-02T03:34:54.920Z,1014.40
2018-06-02T03:35:54.879Z,1014.41
2018-06-02T03:36:54.840Z,1014.44
2018-06-02T03:37:54.798Z,1014.43
2018-06-02T03:38:54.761Z,1014.47
2018-06-02T03:39:54.726Z,1014.47
2018-06-02T03:40:54.685Z,1014.49
2018-06-02T03:41:54.635Z,1014.43
2018-06-02T03:42:54.594Z,1014.51
2018-06-02T03:43:54.556Z,1014.50
2018-06-02T03:44:54.517Z,1014.53
2018-06-02T03:45:54.477Z,1014.51
2018-06-02T03:46:54.431Z,1014.49
2018-06-02T03:47:54.392Z,1014.48
2018-06-02T03:48:54.354Z,1014.51
2018-06-02T03:49:54.309Z,1014.52
2018-06-02T03:50:54.270Z,1014.51
2018-06-02T03:51:54.228Z,1014.50
2018-06-02T03:52:54.194Z,1014.52
2018-06-02T03:53:54.151Z,1014.51
2018-06-02T03:54:54.106Z,1014.50
2018-06-02T03:55:54.064Z,1014.46
2018-06-02T03:56:54.048Z,1014.48
2018-06-02T03:57:53.988Z,1014.46
2018-06-02T03:58:53.942Z,1014.43
2018-06-02T03:59:53.909Z,1014.45
2018-06-02T04:00:53.861Z,1014.42
2018-06-02T04:01:53.820Z,1014.47
2018-06-02T04:02:53.780Z,1014.46
2018-06-02T04:03:53.740Z,1014.47
2018-06-02T04:04:53.700Z,1014.44
2018-06-02T04:05:53.660Z,1014.41
2018-06-02T04:06:53.619Z,1014.44
2018-06-02T04:07:53.575Z,1014.46
2018-06-02T04:08:53.539Z,1014.49
2018-06-02T04:09:53.498Z,1014.47
2018-06-02T04:10:53.456Z,1014.48
2018-06-02T04:11:53.417Z,1014.46
2018-06-02T04:12:53.373Z,1014.44
2018-06-02T04:13:53.334Z,1014.47
2018-06-02T04:14:53.292Z,1014.49
2018-06-02T04:15:53.315Z,1014.47
2018-06-02T04:16:53.213Z,1014.51
2018-06-02T04:17:53.172Z,1014.51
2018-06-02T04:18:53.139Z,1014.55
2018-06-02T04:19:53.094Z,1014.53
2018-06-02T04:20:53.050Z,1014.57
2018-06-02T04:21:53.012Z,1014.56
2018-06-02T04:22:52.975Z,1014.55
2018-06-02T04:23:52.930Z,1014.55
2018-06-02T04:24:52.886Z,1014.59
2018-06-02T04:25:52.845Z,1014.56
2018-06-02T04:26:52.803Z,1014.59
2018-06-02T04:27:52.763Z,1014.56
2018-06-02T04:28:52.724Z,1014.59
2018-06-02T04:29:52.683Z,1014.59
2018-06-02T04:30:52.640Z,1014.57
2018-06-02T04:31:52.601Z,1014.56
2018-06-02T04:32:52.559Z,1014.55
2018-06-02T04:33:52.519Z,1014.56
2018-06-02T04:34:52.481Z,1014.57
2018-06-02T04:35:52.437Z,1014.59
2018-06-02T04:36:52.398Z,1014.57
2018-06-02T04:37:52.356Z,1014.55
2018-06-02T04:38:52.315Z,1014.58
2018-06-02T04:39:52.278Z,1014.58
2018-06-02T04:40:52.234Z,1014.61
2018-06-02T04:41:52.200Z,1014.64
2018-06-02T04:42:52.152Z,1014.63
2018-06-02T04:43:52.113Z,1014.60
2018-06-02T04:44:52.072Z,1014.60
2018-06-02T04:45:52.030Z,1014.63
2018-06-02T04:46:51.994Z,1014.64
2018-06-02T04:47:51.956Z,1014.63
2018-06-02T04:48:51.913Z,1014.62
2018-06-02T04:49:51.869Z,1014.64
2018-06-02T04:50:51.826Z,1014.65
2018-06-02T04:51:51.788Z,1014.72
2018-06-02T04:52:51.748Z,1014.67
2018-06-02T04:53:51.706Z,1014.68
2018-06-02T04:54:51.668Z,1014.70
2018-06-02T04:55:51.626Z,1014.76
2018-06-02T04:56:51.637Z,1014.78
2018-06-02T04:57:51.543Z,1014.83
2018-06-02T04:58:51.507Z,1014.75
2018-06-02T04:59:51.463Z,1014.80
2018-06-02T05:00:51.424Z,1014.81
2018-06-02T05:01:51.383Z,1014.75
2018-06-02T05:02:51.340Z,1014.76
2018-06-02T05:03:51.303Z,1014.81
2018-06-02T05:04:51.262Z,1014.82
2018-06-02T05:05:51.220Z,1014.82
2018-06-02T05:06:51.180Z,1014.79
2018-06-02T05:07:51.139Z,1014.75
2018-06-02T05:08:51.110Z,1014.77
2018-06-02T05:09:51.062Z,1014.78
2018-06-02T05:10:51.017Z,1014.77
2018-06-02T05:11:50.976Z,1014.76
2018-06-02T05:12:50.937Z,1014.77
2018-06-02T05:13:50.898Z,1014.77
2018-06-02T05:14:50.858Z,1014.80
2018-06-02T05:15:50.817Z,1014.79
2018-06-02T05:16:50.782Z,1014.75
2018-06-02T05:17:50.738Z,1014.81
2018-06-02T05:18:50.694Z,1014.82
2018-06-02T05:19:50.653Z,1014.81
2018-06-02T05:20:50.613Z,1014.83
2018-06-02T05:21:50.573Z,1014.83
2018-06-02T05:22:50.533Z,1014.88
2018-06-02T05:23:50.493Z,1014.83
2018-06-02T05:24:50.457Z,1014.88
2018-06-02T05:25:50.414Z,1014.87
2018-06-02T05:26:50.377Z,1014.87
2018-06-02T05:27:50.332Z,1014.87
2018-06-02T05:28:50.292Z,1014.91
2018-06-02T05:29:50.250Z,1014.93
2018-06-02T05:30:50.212Z,1014.92
2018-06-02T05:31:50.170Z,1014.91
2018-06-02T05:32:50.129Z,1014.93
2018-06-02T05:33:50.089Z,1014.93
2018-06-02T05:34:50.051Z,1014.95
2018-06-02T05:35:50.012Z,1014.96
2018-06-02T05:36:49.983Z,1014.95
2018-06-02T05:37:49.933Z,1014.98
2018-06-02T05:38:49.894Z,1014.97
2018-06-02T05:39:49.848Z,1014.97
2018-06-02T05:40:49.806Z,1014.98
2018-06-02T05:41:49.776Z,1015.00
2018-06-02T05:42:49.727Z,1014.97
2018-06-02T05:43:49.688Z,1015.01
2018-06-02T05:44:49.652Z,1015.00
2018-06-02T05:45:49.607Z,1014.98
2018-06-02T05:46:49.569Z,1015.06
2018-06-02T05:47:49.533Z,1015.03
2018-06-02T05:48:49.487Z,1015.07
2018-06-02T05:49:49.445Z,1015.05
2018-06-02T05:50:49.409Z,1015.08
2018-06-02T05:51:49.365Z,1015.08
2018-06-02T05:52:49.348Z,1015.09
2018-06-02T05:53:49.286Z,1015.07
2018-06-02T05:54:49.249Z,1015.08
2018-06-02T05:55:49.204Z,1015.10
2018-06-02T05:56:49.166Z,1015.12
2018-06-02T05:57:49.124Z,1015.12
2018-06-02T05:58:49.087Z,1015.10
2018-06-02T05:59:49.061Z,1015.10
2018-06-02T06:00:49.007Z,1015.10
2018-06-02T06:01:48.964Z,1015.09
2018-06-02T06:02:48.924Z,1015.09
2018-06-02T06:03:48.883Z,1015.12
2018-06-02T06:04:48.848Z,1015.11
2018-06-02T06:05:48.807Z,1015.06
2018-06-02T06:06:48.766Z,1015.06
2018-06-02T06:07:48.726Z,1015.05
2018-06-02T06:08:48.683Z,1015.08
2018-06-02T06:09:48.645Z,1015.06
2018-06-02T06:10:48.599Z,1015.09
2018-06-02T06:11:48.563Z,1015.05
2018-06-02T06:12:48.519Z,1015.09
2018-06-02T06:13:48.483Z,1015.09
2018-06-02T06:14:48.438Z,1015.08
2018-06-02T06:15:48.401Z,1015.03
2018-06-02T06:16:48.360Z,1015.06
2018-06-02T06:17:48.320Z,1015.07
2018-06-02T06:18:48.281Z,1015.05
2018-06-02T06:19:48.249Z,1015.01
2018-06-02T06:20:48.202Z,1015.00
2018-06-02T06:21:48.158Z,1015.00
2018-06-02T06:22:48.119Z,1015.02
2018-06-02T06:23:48.077Z,1015.04
2018-06-02T06:24:48.038Z,1015.01
2018-06-02T06:25:47.998Z,1015.00
2018-06-02T06:26:47.966Z,1015.02
2018-06-02T06:27:47.920Z,1015.03
2018-06-02T06:28:47.877Z,1014.99
2018-06-02T06:29:47.835Z,1015.00
2018-06-02T06:30:47.803Z,1015.04
2018-06-02T06:31:47.761Z,1015.05
2018-06-02T06:32:47.717Z,1015.03
2018-06-02T06:33:47.681Z,1015.06
2018-06-02T06:34:47.635Z,1015.06
2018-06-02T06:35:47.604Z,1015.07
2018-06-02T06:36:47.555Z,1015.05
2018-06-02T06:37:47.518Z,1015.04
2018-06-02T06:38:47.490Z,1015.06
2018-06-02T06:39:47.436Z,1015.03
2018-06-02T06:40:47.398Z,1015.05
2018-06-02T06:41:47.357Z,1015.07
2018-06-02T06:42:47.317Z,1015.09
2018-06-02T06:43:47.276Z,1015.09
2018-06-02T06:44:47.279Z,1015.08
2018-06-02T06:45:47.198Z,1015.08
2018-06-02T06:46:47.159Z,1015.06
2018-06-02T06:47:47.118Z,1015.07
2018-06-02T06:48:47.075Z,1015.09
2018-06-02T06:49:47.034Z,1015.09
2018-06-02T06:50:46.998Z,1015.11
2018-06-02T06:51:46.960Z,1015.05
2018-06-02T06:52:46.916Z,1015.09
2018-06-02T06:53:46.879Z,1015.10
2018-06-02T06:54:46.868Z,1015.11
2018-06-02T06:55:46.796Z,1015.10
2018-06-02T06:56:46.758Z,1015.14
2018-06-02T06:57:46.722Z,1015.14
2018-06-02T06:58:46.676Z,1015.17
2018-06-02T06:59:46.638Z,1015.17
2018-06-02T07:00:46.598Z,1015.21
2018-06-02T07:01:46.558Z,1015.16
2018-06-02T07:02:46.515Z,1015.16
2018-06-02T07:03:46.478Z,1015.19
2018-06-02T07:04:46.438Z,1015.15
2018-06-02T07:05:46.398Z,1015.15
2018-06-02T07:06:46.357Z,1015.14
2018-06-02T07:07:46.318Z,1015.16
2018-06-02T07:08:46.277Z,1015.16
2018-06-02T07:09:46.234Z,1015.13
2018-06-02T07:10:46.198Z,1015.14
2018-06-02T07:11:46.190Z,1015.11
2018-06-02T07:12:46.119Z,1015.13
2018-06-02T07:13:46.075Z,1015.14
2018-06-02T07:14:46.037Z,1015.14
2018-06-02T07:15:46.025Z,1015.17
2018-06-02T07:16:45.970Z,1015.15
2018-06-02T07:17:46.040Z,1015.18
2018-06-02T07:18:45.883Z,1015.18
2018-06-02T07:19:45.834Z,1015.15
2018-06-02T07:20:45.796Z,1015.14
2018-06-02T07:21:45.764Z,1015.13
2018-06-02T07:22:45.716Z,1015.17
2018-06-02T07:23:45.676Z,1015.15
2018-06-02T07:24:45.671Z,1015.13
2018-06-02T07:25:45.595Z,1015.15
2018-06-02T07:26:45.555Z,1015.18
2018-06-02T07:27:45.515Z,1015.17
2018-06-02T07:28:45.477Z,1015.15
2018-06-02T07:29:45.436Z,1015.18
2018-06-02T07:30:45.396Z,1015.15
2018-06-02T07:31:45.356Z,1015.16
2018-06-02T07:32:45.318Z,1015.20
2018-06-02T07:33:45.277Z,1015.16
2018-06-02T07:34:45.236Z,1015.17
2018-06-02T07:35:45.199Z,1015.19
2018-06-02T07:36:45.158Z,1015.18
2018-06-02T07:37:45.119Z,1015.18
2018-06-02T07:38:45.079Z,1015.19
2018-06-02T07:39:45.041Z,1015.21
2018-06-02T07:40:44.998Z,1015.22
2018-06-02T07:41:44.962Z,1015.21
2018-06-02T07:42:44.921Z,1015.16
2018-06-02T07:43:44.880Z,1015.17
2018-06-02T07:44:44.838Z,1015.15
2018-06-02T07:45:44.799Z,1015.17
2018-06-02T07:46:44.760Z,1015.18
2018-06-02T07:47:44.720Z,1015.12
2018-06-02T07:48:44.683Z,1015.16
2018-06-02T07:49:44.644Z,1015.16
2018-06-02T07:50:44.601Z,1015.18
2018-06-02T07:51:44.565Z,1015.15
2018-06-02T07:52:44.522Z,1015.17
2018-06-02T07:53:44.483Z,1015.15
2018-06-02T07:54:44.442Z,1015.18
2018-06-02T07:55:44.401Z,1015.17
2018-06-02T07:56:44.362Z,1015.14
2018-06-02T07:57:44.323Z,1015.14
2018-06-02T07:58:44.282Z,1015.13
2018-06-02T07:59:44.244Z,1015.11
2018-06-02T08:00:44.203Z,1015.12
2018-06-02T08:01:44.164Z,1015.17
2018-06-02T08:02:44.123Z,1015.17
2018-06-02T08:03:44.083Z,1015.19
2018-06-02T08:04:44.048Z,1015.19
2018-06-02T08:05:44.008Z,1015.19
2018-06-02T08:06:43.968Z,1015.16
2018-06-02T08:07:43.924Z,1015.17
2018-06-02T08:08:43.944Z,1015.17
2018-06-02T08:09:43.847Z,1015.21
2018-06-02T08:10:43.812Z,1015.18
2018-06-02T08:11:43.767Z,1015.18
2018-06-02T08:12:43.729Z,1015.19
2018-06-02T08:13:43.687Z,1015.18
2018-06-02T08:14:43.647Z,1015.18
2018-06-02T08:15:43.607Z,1015.25
2018-06-02T08:16:43.571Z,1015.23
2018-06-02T08:17:43.547Z,1015.23
2018-06-02T08:18:43.496Z,1015.24
2018-06-02T08:19:43.492Z,1015.24
2018-06-02T08:20:43.410Z,1015.22
2018-06-02T08:21:43.374Z,1015.24
2018-06-02T08:22:43.333Z,1015.23
2018-06-02T08:23:43.290Z,1015.24
2018-06-02T08:24:43.252Z,1015.24
2018-06-02T08:25:43.212Z,1015.24
2018-06-02T08:26:43.251Z,1015.20
2018-06-02T08:27:43.132Z,1015.27
2018-06-02T08:28:43.098Z,1015.28
2018-06-02T08:29:43.053Z,1015.26
2018-06-02T08:30:43.011Z,1015.29
2018-06-02T08:31:42.973Z,1015.31
2018-06-02T08:32:42.938Z,1015.33
2018-06-02T08:33:42.893Z,1015.30
2018-06-02T08:34:42.853Z,1015.32
2018-06-02T08:35:42.814Z,1015.30
2018-06-02T08:36:42.777Z,1015.34
2018-06-02T08:37:42.736Z,1015.40
2018-06-02T08:38:42.694Z,1015.39
2018-06-02T08:39:42.654Z,1015.43
2018-06-02T08:40:42.616Z,1015.43
2018-06-02T08:41:42.575Z,1015.44
2018-06-02T08:42:42.537Z,1015.45
2018-06-02T08:43:42.495Z,1015.43
2018-06-02T08:44:42.456Z,1015.44
2018-06-02T08:45:42.418Z,1015.44
2018-06-02T08:46:42.378Z,1015.44
2018-06-02T08:47:42.335Z,1015.46
2018-06-02T08:48:42.298Z,1015.44
2018-06-02T08:49:42.258Z,1015.47
2018-06-02T08:50:42.227Z,1015.46
2018-06-02T08:51:42.181Z,1015.44
2018-06-02T08:52:42.140Z,1015.49
2018-06-02T08:53:42.102Z,1015.47
2018-06-02T08:54:42.066Z,1015.44
2018-06-02T08:55:42.020Z,1015.45
2018-06-02T08:56:41.981Z,1015.43
2018-06-02T08:57:41.941Z,1015.48
2018-06-02T08:58:41.902Z,1015.50
2018-06-02T08:59:41.858Z,1015.50
2018-06-02T09:00:41.819Z,1015.48
2018-06-02T09:01:41.780Z,1015.47
2018-06-02T09:02:41.738Z,1015.49
2018-06-02T09:03:41.698Z,1015.46
2018-06-02T09:04:41.659Z,1015.46
2018-06-02T09:05:41.630Z,1015.50
2018-06-02T09:06:41.578Z,1015.51
2018-06-02T09:07:41.543Z,1015.53
2018-06-02T09:08:41.506Z,1015.42
2018-06-02T09:09:41.465Z,1015.47
2018-06-02T09:10:41.421Z,1015.50
2018-06-02T09:11:41.385Z,1015.51
2018-06-02T09:12:41.340Z,1015.52
2018-06-02T09:13:41.304Z,1015.47
2018-06-02T09:14:41.259Z,1015.51
2018-06-02T09:15:41.223Z,1015.51
2018-06-02T09:16:41.182Z,1015.47
2018-06-02T09:17:41.143Z,1015.50
2018-06-02T09:18:41.105Z,1015.44
2018-06-02T09:19:41.065Z,1015.44
2018-06-02T09:20:41.026Z,1015.47
2018-06-02T09:21:41.028Z,1015.48
2018-06-02T09:22:40.945Z,1015.50
2018-06-02T09:23:40.909Z,1015.53
2018-06-02T09:24:40.869Z,1015.53
2018-06-02T09:25:40.830Z,1015.60
2018-06-02T09:26:40.789Z,1015.53
2018-06-02T09:27:40.750Z,1015.57
2018-06-02T09:28:40.711Z,1015.54
2018-06-02T09:29:40.673Z,1015.56
2018-06-02T09:30:40.633Z,1015.57
2018-06-02T09:31:40.594Z,1015.50
2018-06-02T09:32:40.561Z,1015.46
2018-06-02T09:33:40.519Z,1015.53
2018-06-02T09:34:40.478Z,1015.50
2018-06-02T09:35:40.445Z,1015.56
2018-06-02T09:36:40.400Z,1015.53
2018-06-02T09:37:40.362Z,1015.54
2018-06-02T09:38:40.322Z,1015.57
2018-06-02T09:39:40.284Z,1015.60
2018-06-02T09:40:40.244Z,1015.58
2018-06-02T09:41:40.206Z,1015.60
2018-06-02T09:42:40.175Z,1015.58
2018-06-02T09:43:40.129Z,1015.57
2018-06-02T09:44:40.091Z,1015.57
2018-06-02T09:45:40.054Z,1015.58
2018-06-02T09:46:40.016Z,1015.56
2018-06-02T09:47:40.027Z,1015.60
2018-06-02T09:48:39.936Z,1015.58
2018-06-02T09:49:39.902Z,1015.56
2018-06-02T09:50:39.862Z,1015.56
2018-06-02T09:51:39.825Z,1015.59
2018-06-02T09:52:39.786Z,1015.60
2018-06-02T09:53:39.749Z,1015.59
2018-06-02T09:54:39.706Z,1015.64
2018-06-02T09:55:39.668Z,1015.62
2018-06-02T09:56:39.632Z,1015.61
2018-06-02T09:57:39.632Z,1015.62
2018-06-02T09:58:39.553Z,1015.67
2018-06-02T09:59:39.519Z,1015.66
2018-06-02T10:00:39.479Z,1015.62
2018-06-02T10:01:39.438Z,1015.63
2018-06-02T10:02:39.399Z,1015.64
2018-06-02T10:03:39.361Z,1015.60
2018-06-02T10:04:39.377Z,1015.63
2018-06-02T10:05:39.285Z,1015.62
2018-06-02T10:06:39.246Z,1015.58
2018-06-02T10:07:39.210Z,1015.59
2018-06-02T10:08:39.171Z,1015.57
2018-06-02T10:09:39.139Z,1015.60
2018-06-02T10:10:39.177Z,1015.61
2018-06-02T10:11:39.057Z,1015.58
2018-06-02T10:12:39.019Z,1015.60
2018-06-02T10:13:38.980Z,1015.65
2018-06-02T10:14:38.941Z,1015.63
2018-06-02T10:15:38.904Z,1015.54
2018-06-02T10:16:38.869Z,1015.68
2018-06-02T10:17:38.827Z,1015.66
2018-06-02T10:18:38.789Z,1015.66
2018-06-02T10:19:38.756Z,1015.69
2018-06-02T10:20:38.714Z,1015.72
2018-06-02T10:21:38.684Z,1015.73
2018-06-02T10:22:38.638Z,1015.76
2018-06-02T10:23:38.599Z,1015.77
2018-06-02T10:24:38.562Z,1015.72
2018-06-02T10:25:38.525Z,1015.75
2018-06-02T10:26:38.486Z,1015.74
2018-06-02T10:27:38.450Z,1015.75
2018-06-02T10:28:38.411Z,1015.67
2018-06-02T10:29:38.414Z,1015.66
2018-06-02T10:30:38.335Z,1015.71
2018-06-02T10:31:38.299Z,1015.68
2018-06-02T10:32:38.255Z,1015.70
2018-06-02T10:33:38.217Z,1015.72
2018-06-02T10:34:38.178Z,1015.74
2018-06-02T10:35:38.199Z,1015.73
2018-06-02T10:36:38.128Z,1015.76
2018-06-02T10:37:38.068Z,1015.74
2018-06-02T10:38:38.028Z,1015.74
2018-06-02T10:39:37.989Z,1015.74
2018-06-02T10:40:37.954Z,1015.73
2018-06-02T10:41:37.933Z,1015.74
2018-06-02T10:42:37.876Z,1015.72
2018-06-02T10:43:37.835Z,1015.70
2018-06-02T10:44:37.853Z,1015.68
2018-06-02T10:45:37.760Z,1015.70
2018-06-02T10:46:37.723Z,1015.72
2018-06-02T10:47:37.683Z,1015.68
2018-06-02T10:48:37.647Z,1015.71
2018-06-02T10:49:37.610Z,1015.73
2018-06-02T10:50:37.573Z,1015.75
2018-06-02T10:51:37.531Z,1015.67
2018-06-02T10:52:37.502Z,1015.65
2018-06-02T10:53:37.458Z,1015.72
2018-06-02T10:54:37.422Z,1015.77
2018-06-02T10:55:37.383Z,1015.66
2018-06-02T10:56:37.344Z,1015.71
2018-06-02T10:57:37.308Z,1015.70
2018-06-02T10:58:37.263Z,1015.73
2018-06-02T10:59:37.225Z,1015.68
2018-06-02T11:00:37.188Z,1015.69
2018-06-02T11:01:37.159Z,1015.70
2018-06-02T11:02:37.111Z,1015.70
2018-06-02T11:03:37.076Z,1015.65
2018-06-02T11:04:37.038Z,1015.65
2018-06-02T11:05:37.000Z,1015.68
2018-06-02T11:06:36.973Z,1015.66
2018-06-02T11:07:36.922Z,1015.69
2018-06-02T11:08:36.884Z,1015.67
2018-06-02T11:09:36.850Z,1015.66
2018-06-02T11:10:36.872Z,1015.64
2018-06-02T11:11:36.783Z,1015.62
2018-06-02T11:12:36.733Z,1015.65
2018-06-02T11:13:36.694Z,1015.65
2018-06-02T11:14:36.654Z,1015.67
2018-06-02T11:15:36.624Z,1015.66
2018-06-02T11:16:36.581Z,1015.65
2018-06-02T11:17:36.542Z,1015.69
2018-06-02T11:18:36.505Z,1015.68
2018-06-02T11:19:36.554Z,1015.65
2018-06-02T11:20:36.426Z,1015.70
2018-06-02T11:21:36.391Z,1015.71
2018-06-02T11:22:36.356Z,1015.67
2018-06-02T11:23:36.315Z,1015.67
2018-06-02T11:24:36.278Z,1015.65
2018-06-02T11:25:36.239Z,1015.66
2018-06-02T11:26:36.204Z,1015.66
2018-06-02T11:27:36.160Z,1015.69
2018-06-02T11:28:36.123Z,1015.64
2018-06-02T11:29:36.087Z,1015.67
2018-06-02T11:30:36.051Z,1015.65
2018-06-02T11:31:36.008Z,1015.62
2018-06-02T11:32:35.974Z,1015.65
2018-06-02T11:33:35.931Z,1015.65
2018-06-02T11:34:35.898Z,1015.61
2018-06-02T11:35:35.858Z,1015.65
2018-06-02T11:36:35.819Z,1015.65
2018-06-02T11:37:35.779Z,1015.66
2018-06-02T11:38:35.743Z,1015.66
2018-06-02T11:39:35.702Z,1015.66
2018-06-02T11:40:35.665Z,1015.66
2018-06-02T11:41:35.625Z,1015.66
2018-06-02T11:42:35.586Z,1015.70
2018-06-02T11:43:35.550Z,1015.69
2018-06-02T11:44:35.511Z,1015.69
2018-06-02T11:45:35.481Z,1015.71
2018-06-02T11:46:35.435Z,1015.70
2018-06-02T11:47:35.397Z,1015.70
2018-06-02T11:48:35.358Z,1015.76
2018-06-02T11:49:35.325Z,1015.70
2018-06-02T11:50:35.283Z,1015.69
2018-06-02T11:51:35.247Z,1015.74
2018-06-02T11:52:35.206Z,1015.74
2018-06-02T11:53:35.168Z,1015.74
2018-06-02T11:54:35.131Z,1015.73
2018-06-02T11:55:35.092Z,1015.75
2018-06-02T11:56:35.058Z,1015.74
2018-06-02T11:57:35.020Z,1015.69
2018-06-02T11:58:34.979Z,1015.69
2018-06-02T11:59:34.943Z,1015.67
2018-06-02T12:00:34.901Z,1015.71
2018-06-02T12:01:34.871Z,1015.68
2018-06-02T12:02:34.824Z,1015.69
2018-06-02T12:03:34.785Z,1015.68
2018-06-02T12:04:34.749Z,1015.67